createdAt,value
2023-05-13T00:05:03.815Z,1.20
2023-05-13T00:10:44.991Z,1.24
2023-05-13T00:16:07.786Z,1.16
2023-05-13T00:21:31.939Z,1.27
2023-05-13T00:26:53.847Z,0.98
2023-05-13T00:32:17.618Z,1.10
2023-05-13T00:37:41.756Z,1.20
2023-05-13T00:43:05.426Z,1.20
2023-05-13T00:48:30.308Z,1.22
2023-05-13T00:53:54.130Z,1.46
2023-05-13T00:59:13.958Z,1.16
2023-05-13T01:04:38.996Z,1.03
2023-05-13T01:10:03.328Z,1.66
2023-05-13T01:15:22.010Z,1.39
2023-05-13T01:20:43.943Z,1.45
2023-05-13T01:26:33.206Z,1.35
2023-05-13T01:31:53.488Z,1.80
2023-05-13T01:37:38.460Z,1.33
2023-05-13T01:43:01.803Z,1.26
2023-05-13T01:48:25.333Z,1.50
2023-05-13T01:53:49.948Z,1.30
2023-05-13T01:59:12.400Z,1.31
2023-05-13T02:04:35.977Z,1.13
2023-05-13T02:10:01.174Z,1.15
2023-05-13T02:15:22.506Z,1.09
2023-05-13T02:20:45.358Z,1.50
2023-05-13T02:26:03.223Z,1.16
2023-05-13T02:31:27.309Z,1.28
2023-05-13T02:36:49.147Z,1.51
2023-05-13T02:42:14.622Z,1.51
2023-05-13T02:47:40.012Z,1.45
2023-05-13T02:53:19.866Z,1.33
2023-05-13T02:58:41.576Z,1.34
2023-05-13T03:04:06.439Z,1.36
2023-05-13T03:09:53.482Z,1.67
2023-05-13T03:15:17.153Z,1.16
2023-05-13T03:20:38.742Z,1.34
2023-05-13T03:25:57.666Z,1.27
2023-05-13T03:31:19.643Z,1.25
2023-05-13T03:36:43.908Z,1.40
2023-05-13T03:42:05.778Z,1.36
2023-05-13T03:47:26.718Z,1.63
2023-05-13T03:52:51.601Z,1.75
2023-05-13T03:58:17.151Z,1.74
2023-05-13T04:03:39.681Z,1.49
2023-05-13T04:09:04.659Z,1.59
2023-05-13T04:14:21.956Z,1.28
2023-05-13T04:19:41.945Z,1.65
2023-05-13T04:25:06.764Z,1.59
2023-05-13T04:30:31.297Z,1.77
2023-05-13T04:35:55.862Z,1.85
2023-05-13T04:41:21.566Z,1.50
2023-05-13T04:46:45.211Z,1.77
2023-05-13T04:52:10.549Z,1.75
2023-05-13T04:57:35.168Z,2.05
2023-05-13T05:03:23.595Z,1.95
2023-05-13T05:08:47.609Z,1.88
2023-05-13T05:14:05.271Z,1.70
2023-05-13T05:19:31.012Z,1.38
2023-05-13T05:24:54.148Z,1.84
2023-05-13T05:30:18.418Z,1.78
2023-05-13T05:35:43.095Z,1.72
2023-05-13T05:41:07.964Z,1.60
2023-05-13T05:46:27.681Z,2.03
2023-05-13T05:51:52.373Z,1.65
2023-05-13T05:57:14.359Z,1.86
2023-05-13T06:02:38.264Z,1.87
2023-05-13T06:07:59.059Z,1.64
2023-05-13T06:13:24.661Z,1.21
2023-05-13T06:19:00.487Z,1.64
2023-05-13T06:24:22.392Z,1.17
2023-05-13T06:30:08.512Z,1.12
2023-05-13T06:35:30.795Z,1.03
2023-05-13T06:40:55.645Z,0.73
2023-05-13T06:46:16.683Z,0.77
2023-05-13T06:51:41.558Z,0.84
2023-05-13T06:57:07.115Z,0.67
2023-05-13T07:02:45.186Z,0.74
2023-05-13T07:08:02.554Z,0.76
2023-05-13T07:13:26.480Z,0.79
2023-05-13T07:18:48.544Z,0.65
2023-05-13T07:24:12.326Z,0.70
2023-05-13T07:29:50.678Z,0.67
2023-05-13T07:35:19.080Z,0.77
2023-05-13T07:40:43.720Z,0.74
2023-05-13T07:46:28.260Z,0.77
2023-05-13T07:51:50.925Z,0.87
2023-05-13T07:57:15.093Z,0.76
2023-05-13T08:02:58.452Z,0.82
2023-05-13T08:08:19.215Z,0.65
2023-05-13T08:13:41.796Z,0.68
2023-05-13T08:19:06.565Z,0.87
2023-05-13T08:24:28.676Z,0.67
2023-05-13T08:29:48.851Z,0.81
2023-05-13T08:35:08.366Z,0.81
2023-05-13T08:40:31.716Z,0.70
2023-05-13T08:45:55.681Z,0.74
2023-05-13T08:51:35.734Z,0.67
2023-05-13T08:57:00.500Z,0.67
2023-05-13T09:02:25.550Z,0.59
2023-05-13T09:07:50.689Z,0.64
2023-05-13T09:13:14.249Z,0.72
2023-05-13T09:18:38.902Z,0.88
2023-05-13T09:23:57.776Z,0.73
2023-05-13T09:29:23.633Z,0.55
2023-05-13T09:34:47.016Z,0.71
2023-05-13T09:40:09.378Z,0.70
2023-05-13T09:45:31.479Z,0.59
2023-05-13T09:50:54.088Z,0.69
2023-05-13T09:56:18.558Z,0.50
2023-05-13T10:01:38.420Z,0.72
2023-05-13T10:07:02.573Z,0.64
2023-05-13T10:12:21.736Z,0.76
2023-05-13T10:18:07.725Z,1.22
2023-05-13T10:23:31.247Z,1.01
2023-05-13T10:28:55.845Z,1.00
2023-05-13T10:34:20.697Z,1.02
2023-05-13T10:39:43.992Z,0.83
2023-05-13T10:45:21.217Z,0.90
2023-05-13T10:50:41.757Z,0.92
2023-05-13T10:56:13.042Z,0.98
2023-05-13T11:01:35.366Z,1.04
2023-05-13T11:07:00.237Z,0.87
2023-05-13T11:12:33.617Z,0.85
2023-05-13T11:17:57.685Z,0.70
2023-05-13T11:23:25.880Z,0.81
2023-05-13T11:28:49.383Z,1.18
2023-05-13T11:34:18.348Z,1.25
2023-05-13T11:39:43.844Z,1.25
2023-05-13T11:45:09.412Z,1.11
2023-05-13T11:50:48.421Z,1.07
2023-05-13T11:56:09.470Z,1.04
2023-05-13T12:01:33.765Z,1.13
2023-05-13T12:06:59.020Z,1.01
2023-05-13T12:12:24.509Z,1.20
2023-05-13T12:17:48.856Z,0.69
2023-05-13T12:23:08.818Z,1.00
2023-05-13T12:28:34.098Z,1.09
2023-05-13T12:33:58.842Z,0.90
2023-05-13T12:39:46.798Z,1.56
2023-05-13T12:45:23.529Z,1.00
2023-05-13T12:50:43.291Z,1.13
2023-05-13T12:56:01.424Z,0.73
2023-05-13T13:01:26.063Z,0.86
2023-05-13T13:06:50.157Z,0.58
2023-05-13T13:12:11.795Z,0.89
2023-05-13T13:17:32.475Z,0.95
2023-05-13T13:22:55.492Z,0.81
2023-05-13T13:28:20.008Z,0.97
2023-05-13T13:33:44.653Z,0.98
2023-05-13T13:39:07.483Z,1.05
2023-05-13T13:44:29.802Z,1.10
2023-05-13T13:49:54.196Z,0.92
2023-05-13T13:55:16.570Z,1.21
2023-05-13T14:00:36.240Z,1.22
2023-05-13T14:06:00.590Z,0.98
2023-05-13T14:11:24.426Z,0.99
2023-05-13T14:16:47.137Z,1.08
2023-05-13T14:22:12.425Z,1.35
2023-05-13T14:27:37.135Z,0.98
2023-05-13T14:33:01.291Z,0.95
2023-05-13T14:38:25.765Z,0.96
2023-05-13T14:43:46.522Z,0.86
2023-05-13T14:49:11.622Z,0.92
2023-05-13T14:54:30.958Z,1.13
2023-05-13T14:59:54.108Z,0.76
2023-05-13T15:05:16.372Z,0.90
2023-05-13T15:10:53.227Z,1.16
2023-05-13T15:16:11.740Z,1.15
2023-05-13T15:21:32.313Z,1.02
2023-05-13T15:26:54.130Z,0.89
2023-05-13T15:32:28.847Z,1.05
2023-05-13T15:37:50.389Z,0.76
2023-05-13T15:43:15.281Z,1.02
2023-05-13T15:48:33.726Z,0.88
2023-05-13T15:53:53.166Z,0.87
2023-05-13T15:59:17.516Z,0.80
2023-05-13T16:04:38.799Z,1.02
2023-05-13T16:10:25.702Z,0.94
2023-05-13T16:16:08.869Z,0.80
2023-05-13T16:21:54.352Z,1.10
2023-05-13T16:27:16.758Z,0.82
2023-05-13T16:32:39.208Z,0.93
2023-05-13T16:38:03.090Z,1.05
2023-05-13T16:43:26.435Z,0.89
2023-05-13T16:48:52.214Z,1.00
2023-05-13T16:54:43.648Z,1.07
2023-05-13T17:00:06.485Z,1.15
2023-05-13T17:05:34.250Z,1.26
2023-05-13T17:10:58.934Z,1.10
2023-05-13T17:16:25.279Z,0.95
2023-05-13T17:21:50.313Z,0.93
2023-05-13T17:27:13.215Z,0.88
2023-05-13T17:32:37.612Z,1.06
2023-05-13T17:38:02.385Z,0.91
2023-05-13T17:43:27.590Z,1.12
2023-05-13T17:48:51.161Z,0.93
2023-05-13T17:54:12.205Z,0.88
2023-05-13T17:59:37.308Z,1.07
2023-05-13T18:05:02.584Z,0.97
2023-05-13T18:10:25.973Z,0.76
2023-05-13T18:15:46.815Z,1.12
2023-05-13T18:21:11.618Z,0.91
2023-05-13T18:26:31.087Z,0.89
2023-05-13T18:31:56.571Z,1.06
2023-05-13T18:37:21.030Z,1.03
2023-05-13T18:42:44.785Z,0.97
2023-05-13T18:48:02.704Z,0.96
2023-05-13T18:53:21.893Z,1.03
2023-05-13T18:58:41.680Z,1.04
2023-05-13T19:04:01.924Z,0.87
2023-05-13T19:09:22.912Z,1.04
2023-05-13T19:14:45.589Z,1.28
2023-05-13T19:20:05.418Z,1.37
2023-05-13T19:25:28.654Z,1.30
2023-05-13T19:30:52.621Z,1.04
2023-05-13T19:36:35.312Z,1.10
2023-05-13T19:41:55.417Z,0.97
2023-05-13T19:47:20.557Z,1.07
2023-05-13T19:52:41.769Z,1.13
2023-05-13T19:58:03.040Z,1.50
2023-05-13T20:03:25.601Z,1.31
2023-05-13T20:08:47.816Z,1.17
2023-05-13T20:14:10.966Z,1.09
2023-05-13T20:19:32.827Z,1.17
2023-05-13T20:24:55.458Z,1.09
2023-05-13T20:30:20.591Z,0.94
2023-05-13T20:35:43.652Z,1.24
2023-05-13T20:41:08.982Z,1.31
2023-05-13T20:46:33.237Z,1.26
2023-05-13T20:52:11.576Z,1.36
2023-05-13T20:57:50.080Z,1.60
2023-05-13T21:03:13.657Z,1.39
2023-05-13T21:08:36.158Z,1.12
2023-05-13T21:13:59.698Z,1.10
2023-05-13T21:19:22.224Z,1.12
2023-05-13T21:24:45.165Z,1.20
2023-05-13T21:30:10.056Z,1.27
2023-05-13T21:35:33.948Z,1.04
2023-05-13T21:40:56.844Z,1.01
2023-05-13T21:46:17.442Z,1.17
2023-05-13T21:51:40.141Z,1.08
2023-05-13T21:57:02.943Z,1.10
2023-05-13T22:02:27.713Z,1.08
2023-05-13T22:07:50.738Z,1.44
2023-05-13T22:13:09.240Z,1.37
2023-05-13T22:18:34.208Z,1.08
2023-05-13T22:23:58.467Z,1.13
2023-05-13T22:29:23.707Z,1.15
2023-05-13T22:34:49.165Z,1.18
2023-05-13T22:40:13.580Z,1.06
2023-05-13T22:45:37.067Z,1.17
2023-05-13T22:51:00.051Z,1.11
2023-05-13T22:56:24.298Z,0.97
2023-05-13T23:02:08.016Z,0.91
2023-05-13T23:07:30.959Z,0.87
2023-05-13T23:12:55.616Z,0.86
2023-05-13T23:18:19.027Z,0.86
2023-05-13T23:23:44.009Z,0.99
2023-05-13T23:29:06.934Z,1.04
2023-05-13T23:34:53.781Z,1.09
2023-05-13T23:40:15.433Z,0.98
2023-05-13T23:45:40.935Z,0.74
2023-05-13T23:51:06.059Z,0.67
2023-05-13T23:56:30.088Z,1.02
